Aérodrome :
LOGIN :

S'inscrire | Disclaimer

   EN    FR    IT 

 










Légende :    VFR   VFR Marginal   IFR   IFR Intensif   IFR Très Intensif
Visi : 
Plafond : 
>= 8 km
>= 3000ft
5 à 8 km
1000 à 3000 ft
1500m à 5 km
500 à 1000 ft
800 à 1500m
200 à 500 ft
< 800m
< 200 ft
Symboles :   Orages  Brouillard  Fortes neiges  Fortes précipitations  Vent > 20 kt
SIGMETs :   Divers  Orages  Givrage  Turbulence  Onde Orograph.  Cendres Volcan.







- Altitude de l'aérodrome : 1742 ft
- Code IATA : SOF


LBSF - Sofia Int.

DERNIER METAR :
  • 182000Z 12005KT 5000 -SN FEW005 SCT010 OVC019 00/00 Q1014 R99/29//95 NOSIG

METARs EXPIRÉS :
  • 181930Z 10006KT 5000 -SN FEW004 BKN008 OVC017 00/M00 Q1014 R99/29//95 NOSIG
  • 181900Z 11007KT 3200 -SN FEW003 OVC009 00/M00 Q1014 R99/29//95 NOSIG
  • 181830Z 10006KT 3200 -SN SCT003 BKN009 OVC020 00/M00 Q1015 RESN R99/29//95 NOSIG
  • 181800Z 11007KT 2800 SN FEW003 SCT009 OVC016 00/M00 Q1015 R99/29//95 NOSIG
  • 181730Z 10008KT 2800 SN FEW002 SCT012 OVC015 00/M00 Q1015 R99/29//95 NOSIG

TAF TAF LBSF
Valide du 18 à 18h jusqu'au 19 à 18h UTC


181700Z 1818/1918 10010KT 3000 SN SCT005 BKN008 OVC015
TEMPO 1818/1902 1000 +SN BKN003 OVC010
BECMG 1907/1909 34010KT 8000 NSW FEW030 BKN050
Pas de NOTAMs connus pour ce terrain.



MET'MAP, la Météo Aéronautique d'un coup d'oeil ! - Copyright ORBIFLY Décembre 2007 - Disclaimer

ORBIFLY MET'MAP TEAM :

Programmation & Développement : Alexandra Zaïnal
Conception & Développement : Baudouin d'Aumeries
Co-Programmation & Développement : Marc-Olivier Méhu
Soutien technique & logistique : Manuel Goepfert

Contact : metmap@orbifly.com




SOURCES & CREDITS :

   NOAA